sensor_id;sensor_type;location;lat;lon;timestamp;P1;durP1;ratioP1;P2;durP2;ratioP2
52554;SDS011;38455;52.710;6.502;2024-02-04T00:01:03;35.28;;;10.35;;
52554;SDS011;38455;52.710;6.502;2024-02-04T00:03:28;30.38;;;10.13;;
52554;SDS011;38455;52.710;6.502;2024-02-04T00:05:54;29.77;;;8.50;;
52554;SDS011;38455;52.710;6.502;2024-02-04T00:08:20;23.10;;;8.40;;
52554;SDS011;38455;52.710;6.502;2024-02-04T00:10:47;24.80;;;9.38;;
52554;SDS011;38455;52.710;6.502;2024-02-04T00:13:12;32.83;;;11.77;;
52554;SDS011;38455;52.710;6.502;2024-02-04T00:15:38;25.13;;;11.02;;
52554;SDS011;38455;52.710;6.502;2024-02-04T00:18:04;40.80;;;11.45;;
52554;SDS011;38455;52.710;6.502;2024-02-04T00:20:29;32.90;;;10.63;;
52554;SDS011;38455;52.710;6.502;2024-02-04T00:22:57;27.08;;;10.68;;
52554;SDS011;38455;52.710;6.502;2024-02-04T00:25:23;31.40;;;10.30;;
52554;SDS011;38455;52.710;6.502;2024-02-04T00:27:49;34.85;;;11.05;;
52554;SDS011;38455;52.710;6.502;2024-02-04T00:30:15;36.75;;;12.98;;
52554;SDS011;38455;52.710;6.502;2024-02-04T00:32:40;35.55;;;11.75;;
52554;SDS011;38455;52.710;6.502;2024-02-04T00:35:06;34.33;;;12.48;;
52554;SDS011;38455;52.710;6.502;2024-02-04T00:37:32;30.73;;;12.25;;
52554;SDS011;38455;52.710;6.502;2024-02-04T00:39:58;31.30;;;11.18;;
52554;SDS011;38455;52.710;6.502;2024-02-04T00:42:23;35.78;;;10.98;;
52554;SDS011;38455;52.710;6.502;2024-02-04T00:44:49;36.80;;;10.20;;
52554;SDS011;38455;52.710;6.502;2024-02-04T00:47:15;28.17;;;10.30;;
52554;SDS011;38455;52.710;6.502;2024-02-04T00:49:40;27.67;;;9.10;;
52554;SDS011;38455;52.710;6.502;2024-02-04T00:52:06;27.98;;;9.80;;
52554;SDS011;38455;52.710;6.502;2024-02-04T00:54:32;31.83;;;9.88;;
52554;SDS011;38455;52.710;6.502;2024-02-04T00:56:57;26.13;;;9.18;;
52554;SDS011;38455;52.710;6.502;2024-02-04T00:59:24;24.50;;;9.50;;
52554;SDS011;38455;52.710;6.502;2024-02-04T01:01:50;17.55;;;8.05;;
52554;SDS011;38455;52.710;6.502;2024-02-04T01:04:15;15.70;;;7.38;;
52554;SDS011;38455;52.710;6.502;2024-02-04T01:06:41;22.50;;;7.85;;
52554;SDS011;38455;52.710;6.502;2024-02-04T01:09:07;20.05;;;7.10;;
52554;SDS011;38455;52.710;6.502;2024-02-04T01:11:32;23.35;;;6.55;;
52554;SDS011;38455;52.710;6.502;2024-02-04T01:13:58;19.05;;;6.72;;
52554;SDS011;38455;52.710;6.502;2024-02-04T01:16:24;21.98;;;5.68;;
52554;SDS011;38455;52.710;6.502;2024-02-04T01:18:49;14.82;;;6.38;;
52554;SDS011;38455;52.710;6.502;2024-02-04T01:21:15;15.30;;;5.05;;
52554;SDS011;38455;52.710;6.502;2024-02-04T01:23:41;21.83;;;5.40;;
52554;SDS011;38455;52.710;6.502;2024-02-04T01:26:06;13.85;;;5.07;;
52554;SDS011;38455;52.710;6.502;2024-02-04T01:28:32;21.88;;;4.63;;
52554;SDS011;38455;52.710;6.502;2024-02-04T01:30:58;25.52;;;5.50;;
52554;SDS011;38455;52.710;6.502;2024-02-04T01:33:24;21.63;;;5.78;;
52554;SDS011;38455;52.710;6.502;2024-02-04T01:35:49;16.55;;;4.63;;
52554;SDS011;38455;52.710;6.502;2024-02-04T01:38:15;11.80;;;3.92;;
52554;SDS011;38455;52.710;6.502;2024-02-04T01:40:41;19.52;;;4.63;;
52554;SDS011;38455;52.710;6.502;2024-02-04T01:43:07;10.82;;;4.03;;
52554;SDS011;38455;52.710;6.502;2024-02-04T01:45:32;16.45;;;4.57;;
52554;SDS011;38455;52.710;6.502;2024-02-04T01:47:58;25.95;;;4.55;;
52554;SDS011;38455;52.710;6.502;2024-02-04T01:50:24;14.52;;;4.40;;
52554;SDS011;38455;52.710;6.502;2024-02-04T01:52:49;18.25;;;4.97;;
52554;SDS011;38455;52.710;6.502;2024-02-04T01:55:16;20.77;;;6.60;;
52554;SDS011;38455;52.710;6.502;2024-02-04T01:57:42;20.45;;;5.32;;
52554;SDS011;38455;52.710;6.502;2024-02-04T02:00:08;20.52;;;6.50;;
52554;SDS011;38455;52.710;6.502;2024-02-04T02:02:36;23.50;;;6.80;;
52554;SDS011;38455;52.710;6.502;2024-02-04T02:05:05;19.17;;;7.47;;
52554;SDS011;38455;52.710;6.502;2024-02-04T02:07:31;22.45;;;9.48;;
52554;SDS011;38455;52.710;6.502;2024-02-04T02:09:56;20.65;;;9.77;;
52554;SDS011;38455;52.710;6.502;2024-02-04T02:12:24;26.85;;;11.85;;
52554;SDS011;38455;52.710;6.502;2024-02-04T02:14:58;31.30;;;11.23;;
52554;SDS011;38455;52.710;6.502;2024-02-04T02:17:33;28.38;;;10.52;;
52554;SDS011;38455;52.710;6.502;2024-02-04T02:25:25;25.10;;;10.77;;
52554;SDS011;38455;52.710;6.502;2024-02-04T02:27:52;26.77;;;10.27;;
52554;SDS011;38455;52.710;6.502;2024-02-04T02:30:18;21.88;;;10.15;;
52554;SDS011;38455;52.710;6.502;2024-02-04T02:32:44;33.20;;;10.80;;
52554;SDS011;38455;52.710;6.502;2024-02-04T02:35:16;25.42;;;9.93;;
52554;SDS011;38455;52.710;6.502;2024-02-04T02:43:14;22.38;;;9.00;;
52554;SDS011;38455;52.710;6.502;2024-02-04T02:45:41;23.58;;;9.30;;
52554;SDS011;38455;52.710;6.502;2024-02-04T02:48:08;25.65;;;8.07;;
52554;SDS011;38455;52.710;6.502;2024-02-04T02:50:35;22.50;;;7.93;;
52554;SDS011;38455;52.710;6.502;2024-02-04T02:53:01;21.20;;;8.25;;
52554;SDS011;38455;52.710;6.502;2024-02-04T02:55:27;19.50;;;7.93;;
52554;SDS011;38455;52.710;6.502;2024-02-04T02:57:52;19.08;;;7.10;;
52554;SDS011;38455;52.710;6.502;2024-02-04T03:00:18;17.00;;;7.03;;
52554;SDS011;38455;52.710;6.502;2024-02-04T03:02:44;20.10;;;6.47;;
52554;SDS011;38455;52.710;6.502;2024-02-04T03:05:10;26.33;;;7.57;;
52554;SDS011;38455;52.710;6.502;2024-02-04T03:07:36;21.33;;;7.82;;
52554;SDS011;38455;52.710;6.502;2024-02-04T03:10:02;24.63;;;6.40;;
52554;SDS011;38455;52.710;6.502;2024-02-04T03:12:28;21.70;;;6.47;;
52554;SDS011;38455;52.710;6.502;2024-02-04T03:14:54;22.33;;;6.05;;
52554;SDS011;38455;52.710;6.502;2024-02-04T03:17:19;20.25;;;6.97;;
52554;SDS011;38455;52.710;6.502;2024-02-04T03:19:49;18.08;;;5.60;;
52554;SDS011;38455;52.710;6.502;2024-02-04T03:22:19;15.07;;;5.53;;
52554;SDS011;38455;52.710;6.502;2024-02-04T03:24:46;18.25;;;5.38;;
52554;SDS011;38455;52.710;6.502;2024-02-04T03:27:18;20.42;;;5.28;;
52554;SDS011;38455;52.710;6.502;2024-02-04T03:29:44;20.00;;;5.30;;
52554;SDS011;38455;52.710;6.502;2024-02-04T03:32:13;15.05;;;4.85;;
52554;SDS011;38455;52.710;6.502;2024-02-04T03:34:40;17.55;;;5.72;;
52554;SDS011;38455;52.710;6.502;2024-02-04T03:37:06;20.65;;;5.50;;
52554;SDS011;38455;52.710;6.502;2024-02-04T03:39:32;12.48;;;4.38;;
52554;SDS011;38455;52.710;6.502;2024-02-04T03:41:58;14.25;;;4.07;;
52554;SDS011;38455;52.710;6.502;2024-02-04T03:44:23;12.73;;;3.63;;
52554;SDS011;38455;52.710;6.502;2024-02-04T03:46:49;15.65;;;4.43;;
52554;SDS011;38455;52.710;6.502;2024-02-04T03:49:17;11.30;;;4.05;;
52554;SDS011;38455;52.710;6.502;2024-02-04T03:51:43;11.88;;;3.42;;
52554;SDS011;38455;52.710;6.502;2024-02-04T03:54:09;12.52;;;3.53;;
52554;SDS011;38455;52.710;6.502;2024-02-04T03:56:35;14.38;;;2.90;;
52554;SDS011;38455;52.710;6.502;2024-02-04T03:59:01;18.17;;;3.72;;
52554;SDS011;38455;52.710;6.502;2024-02-04T04:01:27;16.52;;;3.33;;
52554;SDS011;38455;52.710;6.502;2024-02-04T04:03:52;12.13;;;2.90;;
52554;SDS011;38455;52.710;6.502;2024-02-04T04:06:18;13.80;;;2.78;;
52554;SDS011;38455;52.710;6.502;2024-02-04T04:08:43;9.63;;;2.65;;
52554;SDS011;38455;52.710;6.502;2024-02-04T04:11:10;18.75;;;3.95;;
52554;SDS011;38455;52.710;6.502;2024-02-04T04:13:36;12.27;;;2.95;;
52554;SDS011;38455;52.710;6.502;2024-02-04T04:16:03;13.38;;;3.13;;
52554;SDS011;38455;52.710;6.502;2024-02-04T04:18:29;11.15;;;2.60;;
52554;SDS011;38455;52.710;6.502;2024-02-04T04:20:54;13.43;;;2.50;;
52554;SDS011;38455;52.710;6.502;2024-02-04T04:23:21;18.45;;;2.72;;
52554;SDS011;38455;52.710;6.502;2024-02-04T04:25:46;7.88;;;2.90;;
52554;SDS011;38455;52.710;6.502;2024-02-04T04:28:12;12.63;;;3.10;;
52554;SDS011;38455;52.710;6.502;2024-02-04T04:30:37;13.38;;;2.90;;
52554;SDS011;38455;52.710;6.502;2024-02-04T04:33:03;11.38;;;2.47;;
52554;SDS011;38455;52.710;6.502;2024-02-04T04:35:29;11.93;;;2.20;;
52554;SDS011;38455;52.710;6.502;2024-02-04T04:37:55;11.98;;;2.65;;
52554;SDS011;38455;52.710;6.502;2024-02-04T04:40:20;12.75;;;2.72;;
52554;SDS011;38455;52.710;6.502;2024-02-04T04:42:46;9.90;;;2.50;;
52554;SDS011;38455;52.710;6.502;2024-02-04T04:45:12;10.07;;;2.20;;
52554;SDS011;38455;52.710;6.502;2024-02-04T04:47:39;11.93;;;3.25;;
52554;SDS011;38455;52.710;6.502;2024-02-04T04:50:04;10.73;;;2.80;;
52554;SDS011;38455;52.710;6.502;2024-02-04T04:52:31;13.50;;;3.45;;
52554;SDS011;38455;52.710;6.502;2024-02-04T04:54:56;8.82;;;2.30;;
52554;SDS011;38455;52.710;6.502;2024-02-04T04:57:22;13.18;;;2.17;;
52554;SDS011;38455;52.710;6.502;2024-02-04T04:59:48;12.07;;;2.67;;
52554;SDS011;38455;52.710;6.502;2024-02-04T05:02:14;13.30;;;2.38;;
52554;SDS011;38455;52.710;6.502;2024-02-04T05:04:43;11.52;;;2.35;;
52554;SDS011;38455;52.710;6.502;2024-02-04T05:07:12;10.52;;;2.80;;
52554;SDS011;38455;52.710;6.502;2024-02-04T05:09:38;17.95;;;2.97;;
52554;SDS011;38455;52.710;6.502;2024-02-04T05:12:04;13.70;;;3.28;;
52554;SDS011;38455;52.710;6.502;2024-02-04T05:14:31;14.18;;;2.67;;
52554;SDS011;38455;52.710;6.502;2024-02-04T05:16:57;14.38;;;2.63;;
52554;SDS011;38455;52.710;6.502;2024-02-04T05:19:22;16.42;;;3.53;;
52554;SDS011;38455;52.710;6.502;2024-02-04T05:21:48;13.20;;;3.30;;
52554;SDS011;38455;52.710;6.502;2024-02-04T05:24:13;12.18;;;2.28;;
52554;SDS011;38455;52.710;6.502;2024-02-04T05:26:39;10.70;;;2.22;;
52554;SDS011;38455;52.710;6.502;2024-02-04T05:29:05;13.60;;;2.78;;
52554;SDS011;38455;52.710;6.502;2024-02-04T05:31:30;10.27;;;2.25;;
52554;SDS011;38455;52.710;6.502;2024-02-04T05:33:56;7.57;;;2.20;;
52554;SDS011;38455;52.710;6.502;2024-02-04T05:36:22;9.35;;;2.60;;
52554;SDS011;38455;52.710;6.502;2024-02-04T05:38:47;11.10;;;2.15;;
52554;SDS011;38455;52.710;6.502;2024-02-04T05:41:13;11.50;;;2.20;;
52554;SDS011;38455;52.710;6.502;2024-02-04T05:43:39;9.82;;;2.33;;
52554;SDS011;38455;52.710;6.502;2024-02-04T05:46:05;15.65;;;2.83;;
52554;SDS011;38455;52.710;6.502;2024-02-04T05:48:30;9.10;;;2.30;;
52554;SDS011;38455;52.710;6.502;2024-02-04T05:50:56;17.15;;;2.78;;
52554;SDS011;38455;52.710;6.502;2024-02-04T05:53:22;13.32;;;2.45;;
52554;SDS011;38455;52.710;6.502;2024-02-04T05:55:47;17.90;;;3.00;;
52554;SDS011;38455;52.710;6.502;2024-02-04T05:58:13;15.43;;;2.67;;
52554;SDS011;38455;52.710;6.502;2024-02-04T06:00:39;11.98;;;3.10;;
52554;SDS011;38455;52.710;6.502;2024-02-04T06:03:05;11.25;;;2.10;;
52554;SDS011;38455;52.710;6.502;2024-02-04T06:05:31;13.32;;;2.40;;
52554;SDS011;38455;52.710;6.502;2024-02-04T06:07:57;19.85;;;2.95;;
52554;SDS011;38455;52.710;6.502;2024-02-04T06:10:23;15.52;;;3.03;;
52554;SDS011;38455;52.710;6.502;2024-02-04T06:12:48;11.85;;;2.75;;
52554;SDS011;38455;52.710;6.502;2024-02-04T06:15:14;18.80;;;2.80;;
52554;SDS011;38455;52.710;6.502;2024-02-04T06:17:40;13.60;;;2.90;;
52554;SDS011;38455;52.710;6.502;2024-02-04T06:20:06;8.82;;;2.08;;
52554;SDS011;38455;52.710;6.502;2024-02-04T06:22:34;11.10;;;2.25;;
52554;SDS011;38455;52.710;6.502;2024-02-04T06:25:00;10.15;;;2.75;;
52554;SDS011;38455;52.710;6.502;2024-02-04T06:27:26;8.68;;;2.65;;
52554;SDS011;38455;52.710;6.502;2024-02-04T06:29:52;19.00;;;3.22;;
52554;SDS011;38455;52.710;6.502;2024-02-04T06:32:18;11.23;;;2.80;;
52554;SDS011;38455;52.710;6.502;2024-02-04T06:34:45;14.05;;;2.80;;
52554;SDS011;38455;52.710;6.502;2024-02-04T06:37:11;16.00;;;3.13;;
52554;SDS011;38455;52.710;6.502;2024-02-04T06:39:37;14.82;;;2.50;;
52554;SDS011;38455;52.710;6.502;2024-02-04T06:42:03;12.80;;;2.80;;
52554;SDS011;38455;52.710;6.502;2024-02-04T06:44:29;10.95;;;2.35;;
52554;SDS011;38455;52.710;6.502;2024-02-04T06:46:57;19.80;;;3.05;;
52554;SDS011;38455;52.710;6.502;2024-02-04T06:49:23;12.00;;;2.28;;
52554;SDS011;38455;52.710;6.502;2024-02-04T06:51:48;13.57;;;3.00;;
52554;SDS011;38455;52.710;6.502;2024-02-04T06:54:15;14.60;;;2.50;;
52554;SDS011;38455;52.710;6.502;2024-02-04T06:56:41;15.60;;;3.33;;
52554;SDS011;38455;52.710;6.502;2024-02-04T06:59:07;10.43;;;2.53;;
52554;SDS011;38455;52.710;6.502;2024-02-04T07:01:32;10.80;;;2.45;;
52554;SDS011;38455;52.710;6.502;2024-02-04T07:03:58;16.95;;;2.60;;
52554;SDS011;38455;52.710;6.502;2024-02-04T07:06:24;13.02;;;2.53;;
52554;SDS011;38455;52.710;6.502;2024-02-04T07:08:49;13.77;;;3.22;;
52554;SDS011;38455;52.710;6.502;2024-02-04T07:11:15;17.25;;;2.75;;
52554;SDS011;38455;52.710;6.502;2024-02-04T07:13:41;17.23;;;2.83;;
52554;SDS011;38455;52.710;6.502;2024-02-04T07:16:07;18.65;;;3.50;;
52554;SDS011;38455;52.710;6.502;2024-02-04T07:18:32;17.58;;;2.92;;
52554;SDS011;38455;52.710;6.502;2024-02-04T07:20:58;19.75;;;3.17;;
52554;SDS011;38455;52.710;6.502;2024-02-04T07:23:24;16.33;;;2.58;;
52554;SDS011;38455;52.710;6.502;2024-02-04T07:25:49;13.75;;;4.15;;
52554;SDS011;38455;52.710;6.502;2024-02-04T07:28:15;19.35;;;3.42;;
52554;SDS011;38455;52.710;6.502;2024-02-04T07:30:41;14.65;;;2.60;;
52554;SDS011;38455;52.710;6.502;2024-02-04T07:33:06;14.95;;;3.38;;
52554;SDS011;38455;52.710;6.502;2024-02-04T07:35:32;15.68;;;3.08;;
52554;SDS011;38455;52.710;6.502;2024-02-04T07:37:58;17.65;;;2.67;;
52554;SDS011;38455;52.710;6.502;2024-02-04T07:40:24;16.10;;;3.08;;
52554;SDS011;38455;52.710;6.502;2024-02-04T07:42:49;13.95;;;2.25;;
52554;SDS011;38455;52.710;6.502;2024-02-04T07:45:15;16.90;;;3.08;;
52554;SDS011;38455;52.710;6.502;2024-02-04T07:47:41;12.73;;;2.45;;
52554;SDS011;38455;52.710;6.502;2024-02-04T07:50:06;14.27;;;2.58;;
52554;SDS011;38455;52.710;6.502;2024-02-04T07:52:33;13.35;;;3.83;;
52554;SDS011;38455;52.710;6.502;2024-02-04T07:54:58;14.30;;;2.60;;
52554;SDS011;38455;52.710;6.502;2024-02-04T07:57:24;8.65;;;2.15;;
52554;SDS011;38455;52.710;6.502;2024-02-04T07:59:50;12.40;;;2.78;;
52554;SDS011;38455;52.710;6.502;2024-02-04T08:02:17;9.43;;;2.58;;
52554;SDS011;38455;52.710;6.502;2024-02-04T08:04:43;17.85;;;2.72;;
52554;SDS011;38455;52.710;6.502;2024-02-04T08:07:08;10.32;;;2.88;;
52554;SDS011;38455;52.710;6.502;2024-02-04T08:09:34;11.38;;;2.88;;
52554;SDS011;38455;52.710;6.502;2024-02-04T08:12:00;8.73;;;2.10;;
52554;SDS011;38455;52.710;6.502;2024-02-04T08:14:26;7.72;;;3.05;;
52554;SDS011;38455;52.710;6.502;2024-02-04T08:16:51;13.50;;;2.10;;
52554;SDS011;38455;52.710;6.502;2024-02-04T08:19:18;12.20;;;2.30;;
52554;SDS011;38455;52.710;6.502;2024-02-04T08:21:44;19.42;;;2.60;;
52554;SDS011;38455;52.710;6.502;2024-02-04T08:24:09;14.95;;;2.65;;
52554;SDS011;38455;52.710;6.502;2024-02-04T08:26:35;15.07;;;2.63;;
52554;SDS011;38455;52.710;6.502;2024-02-04T08:29:01;14.60;;;2.78;;
52554;SDS011;38455;52.710;6.502;2024-02-04T08:31:26;15.45;;;3.58;;
52554;SDS011;38455;52.710;6.502;2024-02-04T08:33:52;8.73;;;2.35;;
52554;SDS011;38455;52.710;6.502;2024-02-04T08:36:18;12.75;;;2.58;;
52554;SDS011;38455;52.710;6.502;2024-02-04T08:38:44;12.43;;;2.20;;
52554;SDS011;38455;52.710;6.502;2024-02-04T08:41:10;12.55;;;2.38;;
52554;SDS011;38455;52.710;6.502;2024-02-04T08:43:36;11.13;;;1.98;;
52554;SDS011;38455;52.710;6.502;2024-02-04T08:46:01;9.60;;;2.15;;
52554;SDS011;38455;52.710;6.502;2024-02-04T08:48:27;9.43;;;2.08;;
52554;SDS011;38455;52.710;6.502;2024-02-04T08:50:53;9.05;;;2.20;;
52554;SDS011;38455;52.710;6.502;2024-02-04T08:53:21;9.88;;;2.17;;
52554;SDS011;38455;52.710;6.502;2024-02-04T08:55:48;11.10;;;2.65;;
52554;SDS011;38455;52.710;6.502;2024-02-04T08:58:14;10.15;;;2.70;;
52554;SDS011;38455;52.710;6.502;2024-02-04T09:00:40;9.27;;;2.30;;
52554;SDS011;38455;52.710;6.502;2024-02-04T09:03:05;5.97;;;2.00;;
52554;SDS011;38455;52.710;6.502;2024-02-04T09:05:31;12.25;;;2.05;;
52554;SDS011;38455;52.710;6.502;2024-02-04T09:07:57;10.73;;;2.83;;
52554;SDS011;38455;52.710;6.502;2024-02-04T09:10:22;9.93;;;2.22;;
52554;SDS011;38455;52.710;6.502;2024-02-04T09:12:48;13.55;;;2.03;;
52554;SDS011;38455;52.710;6.502;2024-02-04T09:15:14;8.15;;;1.73;;
52554;SDS011;38455;52.710;6.502;2024-02-04T09:17:39;9.68;;;2.17;;
52554;SDS011;38455;52.710;6.502;2024-02-04T09:20:05;9.07;;;2.67;;
52554;SDS011;38455;52.710;6.502;2024-02-04T09:22:32;6.13;;;1.52;;
52554;SDS011;38455;52.710;6.502;2024-02-04T09:24:58;7.40;;;1.60;;
52554;SDS011;38455;52.710;6.502;2024-02-04T09:27:24;7.45;;;1.65;;
52554;SDS011;38455;52.710;6.502;2024-02-04T09:29:50;8.10;;;2.75;;
52554;SDS011;38455;52.710;6.502;2024-02-04T09:32:16;4.53;;;1.50;;
52554;SDS011;38455;52.710;6.502;2024-02-04T09:34:42;10.88;;;2.67;;
52554;SDS011;38455;52.710;6.502;2024-02-04T09:37:08;9.23;;;2.30;;
52554;SDS011;38455;52.710;6.502;2024-02-04T09:39:34;3.65;;;1.60;;
52554;SDS011;38455;52.710;6.502;2024-02-04T09:42:01;8.07;;;2.00;;
52554;SDS011;38455;52.710;6.502;2024-02-04T09:44:28;4.60;;;1.40;;
52554;SDS011;38455;52.710;6.502;2024-02-04T09:46:54;9.13;;;1.80;;
52554;SDS011;38455;52.710;6.502;2024-02-04T09:49:23;8.45;;;1.90;;
52554;SDS011;38455;52.710;6.502;2024-02-04T09:51:51;7.60;;;1.80;;
52554;SDS011;38455;52.710;6.502;2024-02-04T09:54:16;6.30;;;1.77;;
52554;SDS011;38455;52.710;6.502;2024-02-04T09:56:46;7.32;;;1.80;;
52554;SDS011;38455;52.710;6.502;2024-02-04T09:59:12;8.77;;;2.38;;
52554;SDS011;38455;52.710;6.502;2024-02-04T10:01:38;5.38;;;2.08;;
52554;SDS011;38455;52.710;6.502;2024-02-04T10:04:05;6.78;;;1.77;;
52554;SDS011;38455;52.710;6.502;2024-02-04T10:06:30;5.28;;;2.33;;
52554;SDS011;38455;52.710;6.502;2024-02-04T10:08:56;6.97;;;2.50;;
52554;SDS011;38455;52.710;6.502;2024-02-04T10:11:22;11.75;;;2.35;;
52554;SDS011;38455;52.710;6.502;2024-02-04T10:13:50;8.20;;;2.58;;
52554;SDS011;38455;52.710;6.502;2024-02-04T10:16:16;7.57;;;2.65;;
52554;SDS011;38455;52.710;6.502;2024-02-04T10:18:43;6.30;;;2.35;;
52554;SDS011;38455;52.710;6.502;2024-02-04T10:23:48;9.98;;;2.50;;
52554;SDS011;38455;52.710;6.502;2024-02-04T10:26:14;8.60;;;1.90;;
52554;SDS011;38455;52.710;6.502;2024-02-04T10:28:41;6.75;;;1.92;;
52554;SDS011;38455;52.710;6.502;2024-02-04T10:31:09;6.32;;;2.00;;
52554;SDS011;38455;52.710;6.502;2024-02-04T10:33:35;5.95;;;1.65;;
52554;SDS011;38455;52.710;6.502;2024-02-04T10:36:01;5.30;;;1.70;;
52554;SDS011;38455;52.710;6.502;2024-02-04T10:38:27;15.73;;;2.38;;
52554;SDS011;38455;52.710;6.502;2024-02-04T10:40:53;13.93;;;2.22;;
52554;SDS011;38455;52.710;6.502;2024-02-04T10:43:23;7.20;;;2.17;;
52554;SDS011;38455;52.710;6.502;2024-02-04T10:45:55;7.32;;;2.08;;
52554;SDS011;38455;52.710;6.502;2024-02-04T10:48:22;6.20;;;2.10;;
52554;SDS011;38455;52.710;6.502;2024-02-04T10:50:51;7.50;;;2.25;;
52554;SDS011;38455;52.710;6.502;2024-02-04T10:53:20;8.50;;;2.38;;
52554;SDS011;38455;52.710;6.502;2024-02-04T10:55:47;6.15;;;2.55;;
52554;SDS011;38455;52.710;6.502;2024-02-04T10:58:15;8.70;;;2.88;;
52554;SDS011;38455;52.710;6.502;2024-02-04T11:00:43;5.65;;;2.60;;
52554;SDS011;38455;52.710;6.502;2024-02-04T11:03:09;9.15;;;3.25;;
52554;SDS011;38455;52.710;6.502;2024-02-04T11:05:36;7.57;;;3.75;;
52554;SDS011;38455;52.710;6.502;2024-02-04T11:08:04;10.35;;;3.40;;
52554;SDS011;38455;52.710;6.502;2024-02-04T11:10:30;9.15;;;3.15;;
52554;SDS011;38455;52.710;6.502;2024-02-04T11:12:57;8.95;;;3.40;;
52554;SDS011;38455;52.710;6.502;2024-02-04T11:15:26;7.10;;;2.95;;
52554;SDS011;38455;52.710;6.502;2024-02-04T11:26:27;6.45;;;3.22;;
52554;SDS011;38455;52.710;6.502;2024-02-04T11:28:54;8.05;;;2.50;;
52554;SDS011;38455;52.710;6.502;2024-02-04T11:31:21;6.05;;;2.58;;
52554;SDS011;38455;52.710;6.502;2024-02-04T11:33:47;5.20;;;2.30;;
52554;SDS011;38455;52.710;6.502;2024-02-04T11:36:16;8.20;;;2.67;;
52554;SDS011;38455;52.710;6.502;2024-02-04T11:38:43;4.05;;;2.28;;
52554;SDS011;38455;52.710;6.502;2024-02-04T11:41:21;5.95;;;2.30;;
52554;SDS011;38455;52.710;6.502;2024-02-04T11:43:51;4.80;;;2.15;;
52554;SDS011;38455;52.710;6.502;2024-02-04T11:46:18;4.70;;;2.10;;
52554;SDS011;38455;52.710;6.502;2024-02-04T11:48:50;8.57;;;3.20;;
52554;SDS011;38455;52.710;6.502;2024-02-04T11:51:21;7.85;;;2.25;;
52554;SDS011;38455;52.710;6.502;2024-02-04T11:53:51;6.00;;;2.03;;
52554;SDS011;38455;52.710;6.502;2024-02-04T11:56:17;7.07;;;2.13;;
52554;SDS011;38455;52.710;6.502;2024-02-04T11:58:43;8.95;;;3.10;;
52554;SDS011;38455;52.710;6.502;2024-02-04T12:01:10;8.95;;;2.10;;
52554;SDS011;38455;52.710;6.502;2024-02-04T12:03:38;5.60;;;2.28;;
52554;SDS011;38455;52.710;6.502;2024-02-04T12:06:04;6.60;;;2.17;;
52554;SDS011;38455;52.710;6.502;2024-02-04T12:08:33;5.15;;;1.67;;
52554;SDS011;38455;52.710;6.502;2024-02-04T12:10:59;7.88;;;1.67;;
52554;SDS011;38455;52.710;6.502;2024-02-04T12:13:27;7.20;;;2.38;;
52554;SDS011;38455;52.710;6.502;2024-02-04T12:15:53;6.20;;;2.00;;
52554;SDS011;38455;52.710;6.502;2024-02-04T12:18:19;10.15;;;2.95;;
52554;SDS011;38455;52.710;6.502;2024-02-04T12:20:48;4.20;;;1.50;;
52554;SDS011;38455;52.710;6.502;2024-02-04T12:23:17;8.07;;;1.40;;
52554;SDS011;38455;52.710;6.502;2024-02-04T12:25:46;8.32;;;1.50;;
52554;SDS011;38455;52.710;6.502;2024-02-04T12:28:12;10.70;;;1.73;;
52554;SDS011;38455;52.710;6.502;2024-02-04T12:30:39;2.45;;;1.08;;
52554;SDS011;38455;52.710;6.502;2024-02-04T12:33:05;10.38;;;1.35;;
52554;SDS011;38455;52.710;6.502;2024-02-04T12:35:31;4.55;;;1.00;;
52554;SDS011;38455;52.710;6.502;2024-02-04T12:37:58;4.82;;;1.23;;
52554;SDS011;38455;52.710;6.502;2024-02-04T12:40:25;3.38;;;1.00;;
52554;SDS011;38455;52.710;6.502;2024-02-04T12:42:53;7.75;;;1.70;;
52554;SDS011;38455;52.710;6.502;2024-02-04T12:45:22;6.47;;;1.27;;
52554;SDS011;38455;52.710;6.502;2024-02-04T12:47:58;4.93;;;1.50;;
52554;SDS011;38455;52.710;6.502;2024-02-04T12:50:24;2.22;;;1.20;;
52554;SDS011;38455;52.710;6.502;2024-02-04T12:53:01;4.53;;;1.20;;
52554;SDS011;38455;52.710;6.502;2024-02-04T12:55:32;4.30;;;1.45;;
52554;SDS011;38455;52.710;6.502;2024-02-04T13:00:36;6.05;;;1.25;;
52554;SDS011;38455;52.710;6.502;2024-02-04T13:03:03;6.07;;;1.02;;
52554;SDS011;38455;52.710;6.502;2024-02-04T13:05:29;10.98;;;1.27;;
52554;SDS011;38455;52.710;6.502;2024-02-04T13:07:59;2.65;;;1.10;;
52554;SDS011;38455;52.710;6.502;2024-02-04T13:10:31;5.40;;;1.23;;
52554;SDS011;38455;52.710;6.502;2024-02-04T13:15:40;6.43;;;1.48;;
52554;SDS011;38455;52.710;6.502;2024-02-04T13:18:10;4.78;;;1.20;;
52554;SDS011;38455;52.710;6.502;2024-02-04T13:20:40;4.50;;;1.48;;
52554;SDS011;38455;52.710;6.502;2024-02-04T13:23:06;3.20;;;1.17;;
52554;SDS011;38455;52.710;6.502;2024-02-04T13:25:33;9.00;;;1.42;;
52554;SDS011;38455;52.710;6.502;2024-02-04T13:27:59;5.80;;;1.88;;
52554;SDS011;38455;52.710;6.502;2024-02-04T13:30:25;8.32;;;2.15;;
52554;SDS011;38455;52.710;6.502;2024-02-04T13:32:50;6.05;;;1.50;;
52554;SDS011;38455;52.710;6.502;2024-02-04T13:35:17;3.25;;;1.50;;
52554;SDS011;38455;52.710;6.502;2024-02-04T13:37:46;7.32;;;1.55;;
52554;SDS011;38455;52.710;6.502;2024-02-04T13:40:15;10.07;;;2.13;;
52554;SDS011;38455;52.710;6.502;2024-02-04T13:42:41;9.23;;;1.75;;
52554;SDS011;38455;52.710;6.502;2024-02-04T13:45:07;5.30;;;1.40;;
52554;SDS011;38455;52.710;6.502;2024-02-04T13:47:33;5.82;;;2.00;;
52554;SDS011;38455;52.710;6.502;2024-02-04T13:49:59;5.55;;;1.15;;
52554;SDS011;38455;52.710;6.502;2024-02-04T13:52:25;3.78;;;1.20;;
52554;SDS011;38455;52.710;6.502;2024-02-04T13:54:51;5.10;;;1.33;;
52554;SDS011;38455;52.710;6.502;2024-02-04T13:57:17;6.57;;;1.30;;
52554;SDS011;38455;52.710;6.502;2024-02-04T13:59:42;4.53;;;1.77;;
52554;SDS011;38455;52.710;6.502;2024-02-04T14:02:08;3.72;;;1.30;;
52554;SDS011;38455;52.710;6.502;2024-02-04T14:04:34;4.20;;;1.70;;
52554;SDS011;38455;52.710;6.502;2024-02-04T14:07:00;4.32;;;1.98;;
52554;SDS011;38455;52.710;6.502;2024-02-04T14:09:29;5.47;;;1.63;;
52554;SDS011;38455;52.710;6.502;2024-02-04T14:11:55;3.22;;;1.10;;
52554;SDS011;38455;52.710;6.502;2024-02-04T14:14:22;4.65;;;1.30;;
52554;SDS011;38455;52.710;6.502;2024-02-04T14:16:48;4.28;;;1.30;;
52554;SDS011;38455;52.710;6.502;2024-02-04T14:19:14;7.57;;;1.63;;
52554;SDS011;38455;52.710;6.502;2024-02-04T14:21:41;3.70;;;1.50;;
52554;SDS011;38455;52.710;6.502;2024-02-04T14:24:06;8.70;;;1.85;;
52554;SDS011;38455;52.710;6.502;2024-02-04T14:26:32;3.28;;;1.40;;
52554;SDS011;38455;52.710;6.502;2024-02-04T14:28:58;3.38;;;1.55;;
52554;SDS011;38455;52.710;6.502;2024-02-04T14:31:24;5.68;;;1.38;;
52554;SDS011;38455;52.710;6.502;2024-02-04T14:33:49;2.65;;;1.40;;
52554;SDS011;38455;52.710;6.502;2024-02-04T14:36:16;5.38;;;1.67;;
52554;SDS011;38455;52.710;6.502;2024-02-04T14:38:42;4.68;;;1.05;;
52554;SDS011;38455;52.710;6.502;2024-02-04T14:41:07;7.95;;;2.05;;
52554;SDS011;38455;52.710;6.502;2024-02-04T14:43:34;7.20;;;1.55;;
52554;SDS011;38455;52.710;6.502;2024-02-04T14:46:03;6.57;;;1.33;;
52554;SDS011;38455;52.710;6.502;2024-02-04T14:48:29;8.32;;;1.80;;
52554;SDS011;38455;52.710;6.502;2024-02-04T14:50:55;8.00;;;1.60;;
52554;SDS011;38455;52.710;6.502;2024-02-04T14:53:22;6.45;;;1.63;;
52554;SDS011;38455;52.710;6.502;2024-02-04T14:55:48;6.85;;;2.45;;
52554;SDS011;38455;52.710;6.502;2024-02-04T14:58:13;6.30;;;1.73;;
52554;SDS011;38455;52.710;6.502;2024-02-04T15:00:39;4.18;;;1.77;;